Alabama Hills, California
Current Conditions -  °F | °C
As of 7:56 AM on Friday 28 Nov 2014 (Local Time) from KBIH Reporting Station
Clear Clear  
Wind Chill: 29°   Ceiling: Unl
Heat Index: 33°   Visibility: 10mi
Dew Point: 14°   Wind: 5mph
Humidity: 46%   Direction: NA
Pressure: 30.11"   Gusts: NA
Location:  36.6126°N, 118.162°W
Report Text: KBIH 281556Z AUTO VRB04KT 10SM CLR 01/M10 A3011 RMK AO2 SLP201 T00061100
Loading
Personal Weather Stations






























Interactive Weather Map New forecast layout! Learn more

10-Day Weather Forecast

Advertisements
Track Severe Weather on mobile